sensor_id;sensor_type;location;lat;lon;timestamp;temperature;humidity
26412;DHT22;59168;;;2022-07-17T00:00:16;13.20;99.90
26412;DHT22;59168;;;2022-07-17T00:02:41;13.20;99.90
26412;DHT22;59168;;;2022-07-17T00:05:07;13.10;99.90
26412;DHT22;59168;;;2022-07-17T00:07:33;13.10;99.90
26412;DHT22;59168;;;2022-07-17T00:09:59;13.10;99.90
26412;DHT22;59168;;;2022-07-17T00:12:24;13.10;99.90
26412;DHT22;59168;;;2022-07-17T00:14:50;13.00;99.90
26412;DHT22;59168;;;2022-07-17T00:17:16;13.00;99.90
26412;DHT22;59168;;;2022-07-17T00:19:42;12.90;99.90
26412;DHT22;59168;;;2022-07-17T00:22:08;12.90;99.90
26412;DHT22;59168;;;2022-07-17T00:24:34;12.90;99.90
26412;DHT22;59168;;;2022-07-17T00:27:00;12.80;99.90
26412;DHT22;59168;;;2022-07-17T00:29:25;12.80;99.90
26412;DHT22;59168;;;2022-07-17T00:31:51;12.70;99.90
26412;DHT22;59168;;;2022-07-17T00:34:16;12.70;99.90
26412;DHT22;59168;;;2022-07-17T00:36:42;12.60;99.90
26412;DHT22;59168;;;2022-07-17T00:39:08;12.60;99.90
26412;DHT22;59168;;;2022-07-17T00:41:34;12.60;99.90
26412;DHT22;59168;;;2022-07-17T00:44:08;12.60;99.90
26412;DHT22;59168;;;2022-07-17T00:46:34;12.50;99.90
26412;DHT22;59168;;;2022-07-17T00:49:00;12.40;99.90
26412;DHT22;59168;;;2022-07-17T00:51:26;12.30;99.90
26412;DHT22;59168;;;2022-07-17T00:53:52;12.20;99.90
26412;DHT22;59168;;;2022-07-17T00:56:20;12.20;99.90
26412;DHT22;59168;;;2022-07-17T00:58:49;12.10;99.90
26412;DHT22;59168;;;2022-07-17T01:01:15;12.00;99.90
26412;DHT22;59168;;;2022-07-17T01:03:41;11.80;99.90
26412;DHT22;59168;;;2022-07-17T01:06:07;11.70;99.90
26412;DHT22;59168;;;2022-07-17T01:08:33;11.60;99.90
26412;DHT22;59168;;;2022-07-17T01:10:59;11.50;99.90
26412;DHT22;59168;;;2022-07-17T01:13:26;11.40;99.90
26412;DHT22;59168;;;2022-07-17T01:15:52;11.30;99.90
26412;DHT22;59168;;;2022-07-17T01:18:18;11.30;99.90
26412;DHT22;59168;;;2022-07-17T01:20:46;11.20;99.90
26412;DHT22;59168;;;2022-07-17T01:23:13;11.20;99.90
26412;DHT22;59168;;;2022-07-17T01:25:39;11.20;99.90
26412;DHT22;59168;;;2022-07-17T01:28:05;11.20;99.90
26412;DHT22;59168;;;2022-07-17T01:30:31;11.20;99.90
26412;DHT22;59168;;;2022-07-17T01:32:57;11.30;99.90
26412;DHT22;59168;;;2022-07-17T01:35:22;11.40;99.90
26412;DHT22;59168;;;2022-07-17T01:37:48;11.40;99.90
26412;DHT22;59168;;;2022-07-17T01:40:15;11.40;99.90
26412;DHT22;59168;;;2022-07-17T01:42:45;11.40;99.90
26412;DHT22;59168;;;2022-07-17T01:45:12;11.40;99.90
26412;DHT22;59168;;;2022-07-17T01:47:39;11.50;99.90
26412;DHT22;59168;;;2022-07-17T01:50:05;11.50;99.90
26412;DHT22;59168;;;2022-07-17T01:52:36;11.50;99.90
26412;DHT22;59168;;;2022-07-17T01:55:04;11.40;99.90
26412;DHT22;59168;;;2022-07-17T01:57:29;11.50;99.90
26412;DHT22;59168;;;2022-07-17T01:59:55;11.40;99.90
26412;DHT22;59168;;;2022-07-17T02:02:21;11.40;99.90
26412;DHT22;59168;;;2022-07-17T02:04:46;11.40;99.90
26412;DHT22;59168;;;2022-07-17T02:07:12;11.50;99.90
26412;DHT22;59168;;;2022-07-17T02:09:38;11.50;99.90
26412;DHT22;59168;;;2022-07-17T02:12:05;11.40;99.90
26412;DHT22;59168;;;2022-07-17T02:14:31;11.30;99.90
26412;DHT22;59168;;;2022-07-17T02:16:57;11.30;99.90
26412;DHT22;59168;;;2022-07-17T02:19:23;11.30;99.90
26412;DHT22;59168;;;2022-07-17T02:21:48;11.20;99.90
26412;DHT22;59168;;;2022-07-17T02:24:14;11.10;99.90
26412;DHT22;59168;;;2022-07-17T02:26:40;11.00;99.90
26412;DHT22;59168;;;2022-07-17T02:29:06;11.10;99.90
26412;DHT22;59168;;;2022-07-17T02:31:31;11.20;99.90
26412;DHT22;59168;;;2022-07-17T02:33:57;11.10;99.90
26412;DHT22;59168;;;2022-07-17T02:36:23;11.20;99.90
26412;DHT22;59168;;;2022-07-17T02:38:48;11.10;99.90
26412;DHT22;59168;;;2022-07-17T02:41:14;11.10;99.90
26412;DHT22;59168;;;2022-07-17T02:43:41;11.10;99.90
26412;DHT22;59168;;;2022-07-17T02:46:07;11.20;99.90
26412;DHT22;59168;;;2022-07-17T02:48:32;11.30;99.90
26412;DHT22;59168;;;2022-07-17T02:50:58;11.20;99.90
26412;DHT22;59168;;;2022-07-17T02:53:24;11.10;99.90
26412;DHT22;59168;;;2022-07-17T02:55:49;11.00;99.90
26412;DHT22;59168;;;2022-07-17T02:58:15;10.90;99.90
26412;DHT22;59168;;;2022-07-17T03:00:40;10.90;99.90
26412;DHT22;59168;;;2022-07-17T03:03:06;10.90;99.90
26412;DHT22;59168;;;2022-07-17T03:05:32;10.80;99.90
26412;DHT22;59168;;;2022-07-17T03:07:57;10.90;99.90
26412;DHT22;59168;;;2022-07-17T03:10:23;10.90;99.90
26412;DHT22;59168;;;2022-07-17T03:12:49;10.90;99.90
26412;DHT22;59168;;;2022-07-17T03:15:15;10.90;99.90
26412;DHT22;59168;;;2022-07-17T03:17:42;10.80;99.90
26412;DHT22;59168;;;2022-07-17T03:20:08;10.80;99.90
26412;DHT22;59168;;;2022-07-17T03:22:34;10.70;99.90
26412;DHT22;59168;;;2022-07-17T03:25:00;10.60;99.90
26412;DHT22;59168;;;2022-07-17T03:27:25;10.70;99.90
26412;DHT22;59168;;;2022-07-17T03:29:52;10.80;99.90
26412;DHT22;59168;;;2022-07-17T03:32:19;10.80;99.90
26412;DHT22;59168;;;2022-07-17T03:34:44;10.90;99.90
26412;DHT22;59168;;;2022-07-17T03:37:10;10.80;99.90
26412;DHT22;59168;;;2022-07-17T03:39:36;10.80;99.90
26412;DHT22;59168;;;2022-07-17T03:42:01;10.80;99.90
26412;DHT22;59168;;;2022-07-17T03:44:27;10.90;99.90
26412;DHT22;59168;;;2022-07-17T03:46:53;10.90;99.90
26412;DHT22;59168;;;2022-07-17T03:49:18;11.00;99.90
26412;DHT22;59168;;;2022-07-17T03:51:44;11.00;99.90
26412;DHT22;59168;;;2022-07-17T03:54:09;11.10;99.90
26412;DHT22;59168;;;2022-07-17T03:56:35;11.10;99.90
26412;DHT22;59168;;;2022-07-17T03:59:01;11.20;99.90
26412;DHT22;59168;;;2022-07-17T04:01:26;11.20;99.90
26412;DHT22;59168;;;2022-07-17T04:03:52;11.30;99.90
26412;DHT22;59168;;;2022-07-17T04:06:18;11.40;99.90
26412;DHT22;59168;;;2022-07-17T04:08:43;11.50;99.90
26412;DHT22;59168;;;2022-07-17T04:11:09;11.60;99.90
26412;DHT22;59168;;;2022-07-17T04:13:35;11.80;99.90
26412;DHT22;59168;;;2022-07-17T04:16:00;12.00;99.90
26412;DHT22;59168;;;2022-07-17T04:18:31;12.30;99.90
26412;DHT22;59168;;;2022-07-17T04:20:59;12.50;99.90
26412;DHT22;59168;;;2022-07-17T04:23:25;13.20;99.90
26412;DHT22;59168;;;2022-07-17T04:25:52;14.60;99.90
26412;DHT22;59168;;;2022-07-17T04:28:18;15.90;99.90
26412;DHT22;59168;;;2022-07-17T04:30:44;17.10;99.90
26412;DHT22;59168;;;2022-07-17T04:33:10;18.30;99.90
26412;DHT22;59168;;;2022-07-17T04:35:36;19.50;99.90
26412;DHT22;59168;;;2022-07-17T04:38:03;20.50;98.60
26412;DHT22;59168;;;2022-07-17T04:40:30;20.70;96.70
26412;DHT22;59168;;;2022-07-17T04:42:55;20.90;96.50
26412;DHT22;59168;;;2022-07-17T04:45:21;21.40;95.20
26412;DHT22;59168;;;2022-07-17T04:47:47;21.90;94.50
26412;DHT22;59168;;;2022-07-17T04:50:13;22.70;93.10
26412;DHT22;59168;;;2022-07-17T04:52:38;23.20;91.80
26412;DHT22;59168;;;2022-07-17T04:55:04;23.50;91.40
26412;DHT22;59168;;;2022-07-17T04:57:30;23.30;91.50
26412;DHT22;59168;;;2022-07-17T04:59:55;23.40;90.90
26412;DHT22;59168;;;2022-07-17T05:02:21;23.80;90.80
26412;DHT22;59168;;;2022-07-17T05:04:47;24.30;88.90
26412;DHT22;59168;;;2022-07-17T05:07:13;24.80;88.00
26412;DHT22;59168;;;2022-07-17T05:09:39;25.20;86.70
26412;DHT22;59168;;;2022-07-17T05:12:05;25.40;85.30
26412;DHT22;59168;;;2022-07-17T05:14:31;25.70;85.00
26412;DHT22;59168;;;2022-07-17T05:16:56;25.50;84.40
26412;DHT22;59168;;;2022-07-17T05:19:22;25.70;83.50
26412;DHT22;59168;;;2022-07-17T05:21:49;25.30;84.20
26412;DHT22;59168;;;2022-07-17T05:24:15;25.50;83.10
26412;DHT22;59168;;;2022-07-17T05:26:41;26.00;82.00
26412;DHT22;59168;;;2022-07-17T05:29:06;26.80;80.70
26412;DHT22;59168;;;2022-07-17T05:31:32;27.50;79.00
26412;DHT22;59168;;;2022-07-17T05:33:57;28.10;77.70
26412;DHT22;59168;;;2022-07-17T05:36:23;29.00;75.70
26412;DHT22;59168;;;2022-07-17T05:38:49;28.60;75.30
26412;DHT22;59168;;;2022-07-17T05:41:14;28.90;74.20
26412;DHT22;59168;;;2022-07-17T05:43:40;28.60;73.80
26412;DHT22;59168;;;2022-07-17T05:46:06;27.20;76.40
26412;DHT22;59168;;;2022-07-17T05:48:32;26.40;76.20
26412;DHT22;59168;;;2022-07-17T05:50:57;25.30;78.20
26412;DHT22;59168;;;2022-07-17T05:53:23;23.90;81.10
26412;DHT22;59168;;;2022-07-17T05:55:49;23.00;84.10
26412;DHT22;59168;;;2022-07-17T05:58:14;22.80;83.70
26412;DHT22;59168;;;2022-07-17T06:00:40;22.50;83.60
26412;DHT22;59168;;;2022-07-17T06:03:06;21.50;86.30
26412;DHT22;59168;;;2022-07-17T06:05:31;21.20;88.00
26412;DHT22;59168;;;2022-07-17T06:07:58;20.30;89.90
26412;DHT22;59168;;;2022-07-17T06:10:24;19.30;91.40
26412;DHT22;59168;;;2022-07-17T06:12:50;19.70;90.90
26412;DHT22;59168;;;2022-07-17T06:15:18;20.30;90.40
26412;DHT22;59168;;;2022-07-17T06:17:44;21.10;88.90
26412;DHT22;59168;;;2022-07-17T06:20:11;20.90;90.20
26412;DHT22;59168;;;2022-07-17T06:22:37;21.60;86.90
26412;DHT22;59168;;;2022-07-17T06:25:03;22.10;85.50
26412;DHT22;59168;;;2022-07-17T06:27:29;22.60;84.20
26412;DHT22;59168;;;2022-07-17T06:29:55;22.90;83.10
26412;DHT22;59168;;;2022-07-17T06:32:20;22.00;84.50
26412;DHT22;59168;;;2022-07-17T06:34:46;21.10;86.30
26412;DHT22;59168;;;2022-07-17T06:37:12;21.40;85.50
26412;DHT22;59168;;;2022-07-17T06:39:37;21.70;84.90
26412;DHT22;59168;;;2022-07-17T06:42:03;21.40;85.60
26412;DHT22;59168;;;2022-07-17T06:44:29;21.80;84.40
26412;DHT22;59168;;;2022-07-17T06:46:55;22.20;84.20
26412;DHT22;59168;;;2022-07-17T06:49:20;22.20;85.30
26412;DHT22;59168;;;2022-07-17T06:51:46;22.30;83.70
26412;DHT22;59168;;;2022-07-17T06:54:14;21.60;84.50
26412;DHT22;59168;;;2022-07-17T06:56:40;21.50;84.30
26412;DHT22;59168;;;2022-07-17T06:59:06;21.10;85.80
26412;DHT22;59168;;;2022-07-17T07:01:35;20.40;87.90
26412;DHT22;59168;;;2022-07-17T07:04:02;20.20;88.70
26412;DHT22;59168;;;2022-07-17T07:06:27;19.90;89.60
26412;DHT22;59168;;;2022-07-17T07:08:53;19.70;89.70
26412;DHT22;59168;;;2022-07-17T07:11:19;19.60;90.20
26412;DHT22;59168;;;2022-07-17T07:13:44;19.90;90.30
26412;DHT22;59168;;;2022-07-17T07:16:10;20.40;89.80
26412;DHT22;59168;;;2022-07-17T07:18:36;20.80;88.00
26412;DHT22;59168;;;2022-07-17T07:21:02;20.80;88.10
26412;DHT22;59168;;;2022-07-17T07:23:28;20.80;89.20
26412;DHT22;59168;;;2022-07-17T07:25:54;20.70;89.30
26412;DHT22;59168;;;2022-07-17T07:28:20;21.00;89.50
26412;DHT22;59168;;;2022-07-17T07:30:45;20.80;90.70
26412;DHT22;59168;;;2022-07-17T07:33:11;20.80;89.60
26412;DHT22;59168;;;2022-07-17T07:35:37;19.90;90.70
26412;DHT22;59168;;;2022-07-17T07:38:03;19.50;90.40
26412;DHT22;59168;;;2022-07-17T07:40:29;19.50;91.70
26412;DHT22;59168;;;2022-07-17T07:42:54;20.40;90.60
26412;DHT22;59168;;;2022-07-17T07:45:20;19.50;90.60
26412;DHT22;59168;;;2022-07-17T07:47:47;19.10;91.50
26412;DHT22;59168;;;2022-07-17T07:50:15;19.20;91.80
26412;DHT22;59168;;;2022-07-17T07:52:41;19.20;90.80
26412;DHT22;59168;;;2022-07-17T07:55:07;19.70;90.80
26412;DHT22;59168;;;2022-07-17T07:57:34;20.20;90.00
26412;DHT22;59168;;;2022-07-17T07:59:59;20.00;90.40
26412;DHT22;59168;;;2022-07-17T08:02:25;21.00;89.40
26412;DHT22;59168;;;2022-07-17T08:04:51;22.20;87.70
26412;DHT22;59168;;;2022-07-17T08:07:17;22.60;85.60
26412;DHT22;59168;;;2022-07-17T08:09:42;23.60;84.40
26412;DHT22;59168;;;2022-07-17T08:12:08;22.70;84.50
26412;DHT22;59168;;;2022-07-17T08:14:34;21.80;86.80
26412;DHT22;59168;;;2022-07-17T08:16:59;21.10;88.80
26412;DHT22;59168;;;2022-07-17T08:19:25;20.60;89.10
26412;DHT22;59168;;;2022-07-17T08:21:50;20.00;90.50
26412;DHT22;59168;;;2022-07-17T08:24:16;20.10;90.40
26412;DHT22;59168;;;2022-07-17T08:26:42;20.50;89.70
26412;DHT22;59168;;;2022-07-17T08:29:08;20.60;89.40
26412;DHT22;59168;;;2022-07-17T08:31:34;20.50;89.70
26412;DHT22;59168;;;2022-07-17T08:33:59;21.00;87.90
26412;DHT22;59168;;;2022-07-17T08:36:25;21.90;86.00
26412;DHT22;59168;;;2022-07-17T08:38:50;22.80;84.00
26412;DHT22;59168;;;2022-07-17T08:41:16;24.80;81.90
26412;DHT22;59168;;;2022-07-17T08:43:43;27.00;77.40
26412;DHT22;59168;;;2022-07-17T08:46:12;27.20;74.90
26412;DHT22;59168;;;2022-07-17T08:48:40;26.20;75.50
26412;DHT22;59168;;;2022-07-17T08:51:07;25.10;78.50
26412;DHT22;59168;;;2022-07-17T08:53:33;25.00;77.70
26412;DHT22;59168;;;2022-07-17T08:55:59;23.70;80.90
26412;DHT22;59168;;;2022-07-17T08:58:25;22.80;81.50
26412;DHT22;59168;;;2022-07-17T09:00:50;22.30;83.60
26412;DHT22;59168;;;2022-07-17T09:03:16;22.20;84.00
26412;DHT22;59168;;;2022-07-17T09:05:43;22.50;82.80
26412;DHT22;59168;;;2022-07-17T09:08:16;22.20;83.90
26412;DHT22;59168;;;2022-07-17T09:10:44;22.00;84.20
26412;DHT22;59168;;;2022-07-17T09:15:46;21.40;84.70
26412;DHT22;59168;;;2022-07-17T09:18:13;21.10;86.20
26412;DHT22;59168;;;2022-07-17T09:20:53;21.10;86.20
26412;DHT22;59168;;;2022-07-17T09:23:20;20.60;88.50
26412;DHT22;59168;;;2022-07-17T09:25:48;20.60;88.30
26412;DHT22;59168;;;2022-07-17T09:28:15;20.20;90.00
26412;DHT22;59168;;;2022-07-17T09:30:43;20.30;89.20
26412;DHT22;59168;;;2022-07-17T09:33:15;20.30;89.90
26412;DHT22;59168;;;2022-07-17T09:36:08;20.40;88.70
26412;DHT22;59168;;;2022-07-17T09:38:36;21.00;88.30
26412;DHT22;59168;;;2022-07-17T09:43:54;20.40;88.30
26412;DHT22;59168;;;2022-07-17T09:46:30;20.40;89.20
26412;DHT22;59168;;;2022-07-17T09:49:04;20.40;88.00
26412;DHT22;59168;;;2022-07-17T09:51:32;20.60;88.40
26412;DHT22;59168;;;2022-07-17T09:54:01;20.40;89.80
26412;DHT22;59168;;;2022-07-17T09:56:28;20.30;89.50
26412;DHT22;59168;;;2022-07-17T09:59:09;20.80;88.90
26412;DHT22;59168;;;2022-07-17T10:01:36;21.70;89.10
26412;DHT22;59168;;;2022-07-17T10:04:03;22.50;86.10
26412;DHT22;59168;;;2022-07-17T10:06:29;24.20;85.30
26412;DHT22;59168;;;2022-07-17T10:08:56;25.60;80.40
26412;DHT22;59168;;;2022-07-17T10:11:27;26.20;78.10
26412;DHT22;59168;;;2022-07-17T10:13:55;23.50;82.70
26412;DHT22;59168;;;2022-07-17T10:16:29;24.20;80.90
26412;DHT22;59168;;;2022-07-17T10:18:57;24.70;80.70
26412;DHT22;59168;;;2022-07-17T10:21:25;24.80;79.40
26412;DHT22;59168;;;2022-07-17T10:29:32;24.30;79.40
26412;DHT22;59168;;;2022-07-17T10:32:00;23.20;82.10
26412;DHT22;59168;;;2022-07-17T10:34:40;23.30;81.30
26412;DHT22;59168;;;2022-07-17T10:39:53;24.50;79.50
26412;DHT22;59168;;;2022-07-17T10:42:37;24.70;78.50
26412;DHT22;59168;;;2022-07-17T10:45:15;24.00;80.90
26412;DHT22;59168;;;2022-07-17T10:47:47;24.00;80.30
26412;DHT22;59168;;;2022-07-17T10:50:13;25.40;78.80
26412;DHT22;59168;;;2022-07-17T10:52:39;26.10;79.00
26412;DHT22;59168;;;2022-07-17T10:55:17;27.40;77.30
26412;DHT22;59168;;;2022-07-17T10:57:42;28.60;72.60
26412;DHT22;59168;;;2022-07-17T11:00:08;28.40;71.90
26412;DHT22;59168;;;2022-07-17T11:02:39;27.70;73.50
26412;DHT22;59168;;;2022-07-17T11:05:09;27.30;73.20
26412;DHT22;59168;;;2022-07-17T11:07:35;25.50;76.10
26412;DHT22;59168;;;2022-07-17T11:10:02;24.30;76.60
26412;DHT22;59168;;;2022-07-17T11:12:34;24.40;76.80
26412;DHT22;59168;;;2022-07-17T11:15:03;24.40;75.70
26412;DHT22;59168;;;2022-07-17T11:17:30;24.40;76.90
26412;DHT22;59168;;;2022-07-17T11:19:58;24.90;76.60
26412;DHT22;59168;;;2022-07-17T11:22:24;24.80;77.00
26412;DHT22;59168;;;2022-07-17T11:24:50;25.30;75.60
26412;DHT22;59168;;;2022-07-17T11:29:45;26.50;74.20
26412;DHT22;59168;;;2022-07-17T11:32:11;26.70;74.60
26412;DHT22;59168;;;2022-07-17T11:34:36;28.00;72.20
26412;DHT22;59168;;;2022-07-17T11:37:05;28.80;70.90
26412;DHT22;59168;;;2022-07-17T11:39:42;29.70;69.50
26412;DHT22;59168;;;2022-07-17T11:42:15;30.20;68.50
26412;DHT22;59168;;;2022-07-17T11:44:41;30.20;68.40
26412;DHT22;59168;;;2022-07-17T11:47:09;30.00;67.50
26412;DHT22;59168;;;2022-07-17T11:49:37;28.20;67.70
26412;DHT22;59168;;;2022-07-17T11:52:11;28.20;68.10
26412;DHT22;59168;;;2022-07-17T11:54:49;27.90;67.80
26412;DHT22;59168;;;2022-07-17T11:57:15;26.40;70.40
26412;DHT22;59168;;;2022-07-17T11:59:41;26.00;70.80
26412;DHT22;59168;;;2022-07-17T12:02:15;26.10;71.70
26412;DHT22;59168;;;2022-07-17T12:04:54;25.90;72.00
26412;DHT22;59168;;;2022-07-17T12:07:21;26.00;72.20
26412;DHT22;59168;;;2022-07-17T12:09:47;26.30;71.00
26412;DHT22;59168;;;2022-07-17T12:12:24;26.60;70.10
26412;DHT22;59168;;;2022-07-17T12:17:17;25.60;73.00
26412;DHT22;59168;;;2022-07-17T12:19:43;25.80;72.90
26412;DHT22;59168;;;2022-07-17T12:22:08;26.50;72.00
26412;DHT22;59168;;;2022-07-17T12:24:42;27.80;70.90
26412;DHT22;59168;;;2022-07-17T12:27:14;28.90;68.90
26412;DHT22;59168;;;2022-07-17T12:29:41;29.90;67.90
26412;DHT22;59168;;;2022-07-17T12:32:09;29.80;65.80
26412;DHT22;59168;;;2022-07-17T12:34:37;30.10;64.40
26412;DHT22;59168;;;2022-07-17T12:37:03;30.20;64.90
26412;DHT22;59168;;;2022-07-17T12:39:30;29.90;65.00
26412;DHT22;59168;;;2022-07-17T12:41:57;28.30;67.30
26412;DHT22;59168;;;2022-07-17T12:44:22;26.80;69.40
26412;DHT22;59168;;;2022-07-17T12:46:48;27.30;69.20
26412;DHT22;59168;;;2022-07-17T12:49:13;28.50;68.40
26412;DHT22;59168;;;2022-07-17T12:51:40;29.50;67.30
26412;DHT22;59168;;;2022-07-17T12:54:06;30.20;66.60
26412;DHT22;59168;;;2022-07-17T12:56:32;30.40;65.40
26412;DHT22;59168;;;2022-07-17T12:58:58;29.90;65.30
26412;DHT22;59168;;;2022-07-17T13:01:24;29.70;66.30
26412;DHT22;59168;;;2022-07-17T13:03:50;29.90;65.40
26412;DHT22;59168;;;2022-07-17T13:06:15;29.10;66.10
26412;DHT22;59168;;;2022-07-17T13:08:41;28.90;67.00
26412;DHT22;59168;;;2022-07-17T13:11:07;29.00;66.20
26412;DHT22;59168;;;2022-07-17T13:13:32;27.80;67.20
26412;DHT22;59168;;;2022-07-17T13:15:58;27.20;68.80
26412;DHT22;59168;;;2022-07-17T13:18:24;27.00;68.70
26412;DHT22;59168;;;2022-07-17T13:20:49;26.70;69.20
26412;DHT22;59168;;;2022-07-17T13:23:15;26.50;69.30
26412;DHT22;59168;;;2022-07-17T13:25:42;26.50;69.30
26412;DHT22;59168;;;2022-07-17T13:28:10;26.10;69.50
26412;DHT22;59168;;;2022-07-17T13:30:36;25.90;70.30
26412;DHT22;59168;;;2022-07-17T13:33:02;25.60;71.70
26412;DHT22;59168;;;2022-07-17T13:35:28;25.20;73.60
26412;DHT22;59168;;;2022-07-17T13:37:56;25.20;71.70
26412;DHT22;59168;;;2022-07-17T13:40:27;25.30;71.70
26412;DHT22;59168;;;2022-07-17T13:42:53;25.30;70.80
26412;DHT22;59168;;;2022-07-17T13:45:19;25.20;70.60
26412;DHT22;59168;;;2022-07-17T13:47:45;24.90;70.40
26412;DHT22;59168;;;2022-07-17T13:50:10;24.80;71.20
26412;DHT22;59168;;;2022-07-17T13:52:37;24.30;71.20
26412;DHT22;59168;;;2022-07-17T13:55:04;24.10;71.90
26412;DHT22;59168;;;2022-07-17T13:57:31;24.10;73.10
26412;DHT22;59168;;;2022-07-17T13:59:56;24.00;72.90
26412;DHT22;59168;;;2022-07-17T14:02:23;24.00;72.40
26412;DHT22;59168;;;2022-07-17T14:04:48;24.00;72.80
26412;DHT22;59168;;;2022-07-17T14:07:14;24.00;72.40
26412;DHT22;59168;;;2022-07-17T14:09:40;24.10;72.40
26412;DHT22;59168;;;2022-07-17T14:12:06;24.00;72.50
26412;DHT22;59168;;;2022-07-17T14:14:32;23.90;72.80
26412;DHT22;59168;;;2022-07-17T14:16:58;23.40;72.50
26412;DHT22;59168;;;2022-07-17T14:19:23;23.30;74.30
26412;DHT22;59168;;;2022-07-17T14:21:49;23.30;73.60
26412;DHT22;59168;;;2022-07-17T14:24:15;23.20;73.80
26412;DHT22;59168;;;2022-07-17T14:26:41;23.20;73.40
26412;DHT22;59168;;;2022-07-17T14:29:08;23.40;73.20
26412;DHT22;59168;;;2022-07-17T14:31:34;23.30;74.10
26412;DHT22;59168;;;2022-07-17T14:34:00;23.30;73.60
26412;DHT22;59168;;;2022-07-17T14:36:25;23.20;73.20
26412;DHT22;59168;;;2022-07-17T14:38:51;23.10;74.10
26412;DHT22;59168;;;2022-07-17T14:41:17;22.80;73.60
26412;DHT22;59168;;;2022-07-17T14:43:43;22.80;73.50
26412;DHT22;59168;;;2022-07-17T14:46:09;22.80;74.50
26412;DHT22;59168;;;2022-07-17T14:48:34;22.90;74.10
26412;DHT22;59168;;;2022-07-17T14:51:00;22.80;75.00
26412;DHT22;59168;;;2022-07-17T14:53:26;22.80;75.10
26412;DHT22;59168;;;2022-07-17T14:55:52;22.80;74.10
26412;DHT22;59168;;;2022-07-17T14:58:17;23.00;74.90
26412;DHT22;59168;;;2022-07-17T15:00:43;23.00;73.70
26412;DHT22;59168;;;2022-07-17T15:03:09;23.10;73.80
26412;DHT22;59168;;;2022-07-17T15:05:35;23.10;74.00
26412;DHT22;59168;;;2022-07-17T15:08:01;23.00;73.50
26412;DHT22;59168;;;2022-07-17T15:10:26;23.00;73.60
26412;DHT22;59168;;;2022-07-17T15:12:52;22.80;73.60
26412;DHT22;59168;;;2022-07-17T15:15:18;22.40;74.30
26412;DHT22;59168;;;2022-07-17T15:17:43;22.50;73.90
26412;DHT22;59168;;;2022-07-17T15:20:09;22.60;73.90
26412;DHT22;59168;;;2022-07-17T15:22:35;22.80;74.20
26412;DHT22;59168;;;2022-07-17T15:25:01;22.80;74.10
26412;DHT22;59168;;;2022-07-17T15:27:26;22.70;73.90
26412;DHT22;59168;;;2022-07-17T15:29:52;22.80;73.00
26412;DHT22;59168;;;2022-07-17T15:32:18;22.80;72.70
26412;DHT22;59168;;;2022-07-17T15:34:43;22.80;72.90
26412;DHT22;59168;;;2022-07-17T15:37:09;22.80;72.80
26412;DHT22;59168;;;2022-07-17T15:39:35;22.90;72.20
26412;DHT22;59168;;;2022-07-17T15:42:01;22.90;71.80
26412;DHT22;59168;;;2022-07-17T15:44:26;22.90;71.80
26412;DHT22;59168;;;2022-07-17T15:46:52;22.60;72.20
26412;DHT22;59168;;;2022-07-17T15:49:19;22.70;72.20
26412;DHT22;59168;;;2022-07-17T15:51:45;22.70;72.00
26412;DHT22;59168;;;2022-07-17T15:54:12;22.80;71.90
26412;DHT22;59168;;;2022-07-17T15:56:37;22.90;71.40
26412;DHT22;59168;;;2022-07-17T15:59:05;23.00;72.10
26412;DHT22;59168;;;2022-07-17T16:01:31;22.90;71.60
26412;DHT22;59168;;;2022-07-17T16:03:56;23.00;71.80
26412;DHT22;59168;;;2022-07-17T16:06:22;23.00;72.40
26412;DHT22;59168;;;2022-07-17T16:08:47;23.00;72.80
26412;DHT22;59168;;;2022-07-17T16:11:13;23.00;71.70
26412;DHT22;59168;;;2022-07-17T16:13:39;23.10;71.90
26412;DHT22;59168;;;2022-07-17T16:16:04;23.00;71.80
26412;DHT22;59168;;;2022-07-17T16:18:30;22.90;71.90
26412;DHT22;59168;;;2022-07-17T16:20:56;22.80;72.30
26412;DHT22;59168;;;2022-07-17T16:23:22;22.70;72.80
26412;DHT22;59168;;;2022-07-17T16:25:49;22.70;72.90
26412;DHT22;59168;;;2022-07-17T16:28:14;22.50;72.80
26412;DHT22;59168;;;2022-07-17T16:30:40;22.40;73.70
26412;DHT22;59168;;;2022-07-17T16:33:06;22.30;73.70
26412;DHT22;59168;;;2022-07-17T16:35:32;22.30;73.30
26412;DHT22;59168;;;2022-07-17T16:37:57;22.30;74.00
26412;DHT22;59168;;;2022-07-17T16:40:23;22.40;73.30
26412;DHT22;59168;;;2022-07-17T16:42:49;22.40;73.30
26412;DHT22;59168;;;2022-07-17T16:45:15;22.40;72.90
26412;DHT22;59168;;;2022-07-17T16:47:40;22.50;73.10
26412;DHT22;59168;;;2022-07-17T16:50:07;22.50;72.80
26412;DHT22;59168;;;2022-07-17T16:52:32;22.50;72.10
26412;DHT22;59168;;;2022-07-17T16:54:59;22.50;72.10
26412;DHT22;59168;;;2022-07-17T16:57:25;22.50;71.90
26412;DHT22;59168;;;2022-07-17T16:59:50;22.50;71.60
26412;DHT22;59168;;;2022-07-17T17:02:16;22.50;72.20
26412;DHT22;59168;;;2022-07-17T17:04:42;22.40;72.10
26412;DHT22;59168;;;2022-07-17T17:07:07;22.40;71.70
26412;DHT22;59168;;;2022-07-17T17:09:33;22.40;72.00
26412;DHT22;59168;;;2022-07-17T17:11:59;22.30;72.00
26412;DHT22;59168;;;2022-07-17T17:14:24;22.40;71.80
26412;DHT22;59168;;;2022-07-17T17:16:50;22.40;71.20
26412;DHT22;59168;;;2022-07-17T17:19:16;22.30;72.20
26412;DHT22;59168;;;2022-07-17T17:21:42;22.40;72.90
26412;DHT22;59168;;;2022-07-17T17:24:08;22.30;73.50
26412;DHT22;59168;;;2022-07-17T17:26:33;22.30;74.60
26412;DHT22;59168;;;2022-07-17T17:28:59;22.20;74.90
26412;DHT22;59168;;;2022-07-17T17:31:25;22.20;75.10
26412;DHT22;59168;;;2022-07-17T17:33:50;22.20;75.50
26412;DHT22;59168;;;2022-07-17T17:36:16;22.10;75.40
26412;DHT22;59168;;;2022-07-17T17:38:42;22.10;75.70
26412;DHT22;59168;;;2022-07-17T17:41:07;22.10;75.90
26412;DHT22;59168;;;2022-07-17T17:43:33;22.10;76.00
26412;DHT22;59168;;;2022-07-17T17:45:59;22.00;75.90
26412;DHT22;59168;;;2022-07-17T17:48:25;21.90;75.90
26412;DHT22;59168;;;2022-07-17T17:50:52;22.00;75.90
26412;DHT22;59168;;;2022-07-17T17:53:18;21.90;75.80
26412;DHT22;59168;;;2022-07-17T17:55:43;21.90;76.90
26412;DHT22;59168;;;2022-07-17T17:58:09;21.90;76.20
26412;DHT22;59168;;;2022-07-17T18:00:35;21.90;76.80
26412;DHT22;59168;;;2022-07-17T18:03:01;21.80;76.60
26412;DHT22;59168;;;2022-07-17T18:05:27;21.80;76.80
26412;DHT22;59168;;;2022-07-17T18:07:53;21.80;76.80
26412;DHT22;59168;;;2022-07-17T18:10:19;21.70;76.80
26412;DHT22;59168;;;2022-07-17T18:12:45;21.70;77.00
26412;DHT22;59168;;;2022-07-17T18:15:12;21.60;77.60
26412;DHT22;59168;;;2022-07-17T18:17:38;21.60;76.70
26412;DHT22;59168;;;2022-07-17T18:20:05;21.60;77.20
26412;DHT22;59168;;;2022-07-17T18:22:31;21.50;77.70
26412;DHT22;59168;;;2022-07-17T18:24:57;21.50;77.70
26412;DHT22;59168;;;2022-07-17T18:27:23;21.50;78.00
26412;DHT22;59168;;;2022-07-17T18:29:48;21.40;78.10
26412;DHT22;59168;;;2022-07-17T18:32:14;21.40;77.90
26412;DHT22;59168;;;2022-07-17T18:34:40;21.40;78.30
26412;DHT22;59168;;;2022-07-17T18:37:06;21.30;78.60
26412;DHT22;59168;;;2022-07-17T18:39:31;21.30;78.60
26412;DHT22;59168;;;2022-07-17T18:41:57;21.20;78.50
26412;DHT22;59168;;;2022-07-17T18:44:23;21.20;78.90
26412;DHT22;59168;;;2022-07-17T18:46:49;21.10;79.20
26412;DHT22;59168;;;2022-07-17T18:49:15;21.00;79.60
26412;DHT22;59168;;;2022-07-17T18:51:42;21.00;79.90
26412;DHT22;59168;;;2022-07-17T18:54:11;20.90;80.10
26412;DHT22;59168;;;2022-07-17T18:56:36;20.80;80.30
26412;DHT22;59168;;;2022-07-17T18:59:02;20.80;81.10
26412;DHT22;59168;;;2022-07-17T19:01:28;20.70;81.50